sensor_id;sensor_type;location;lat;lon;timestamp;P1;durP1;ratioP1;P2;durP2;ratioP2
21339;SDS011;10828;47.064;15.422;2023-07-31T06:13:45;9.17;;;4.33;;
21339;SDS011;10828;47.064;15.422;2023-07-31T06:16:13;11.73;;;4.13;;
21339;SDS011;10828;47.064;15.422;2023-07-31T06:18:40;7.40;;;4.00;;
21339;SDS011;10828;47.064;15.422;2023-07-31T06:21:05;9.23;;;4.30;;
21339;SDS011;10828;47.064;15.422;2023-07-31T06:23:31;6.80;;;3.47;;
21339;SDS011;10828;47.064;15.422;2023-07-31T06:25:57;11.23;;;4.70;;
21339;SDS011;10828;47.064;15.422;2023-07-31T06:28:26;9.80;;;3.97;;
21339;SDS011;10828;47.064;15.422;2023-07-31T06:30:56;8.30;;;3.67;;
21339;SDS011;10828;47.064;15.422;2023-07-31T06:33:23;12.93;;;3.90;;
21339;SDS011;10828;47.064;15.422;2023-07-31T06:35:49;15.90;;;4.57;;
21339;SDS011;10828;47.064;15.422;2023-07-31T06:38:15;11.13;;;4.40;;
21339;SDS011;10828;47.064;15.422;2023-07-31T06:40:40;9.77;;;4.57;;
21339;SDS011;10828;47.064;15.422;2023-07-31T06:43:06;10.67;;;4.40;;
21339;SDS011;10828;47.064;15.422;2023-07-31T06:45:36;10.43;;;4.13;;
21339;SDS011;10828;47.064;15.422;2023-07-31T06:48:03;18.03;;;4.50;;
21339;SDS011;10828;47.064;15.422;2023-07-31T06:50:29;11.70;;;4.57;;
21339;SDS011;10828;47.064;15.422;2023-07-31T06:52:58;10.80;;;3.93;;
21339;SDS011;10828;47.064;15.422;2023-07-31T06:55:23;13.53;;;4.40;;
21339;SDS011;10828;47.064;15.422;2023-07-31T06:57:51;11.17;;;4.90;;
21339;SDS011;10828;47.064;15.422;2023-07-31T07:00:19;7.83;;;3.70;;
21339;SDS011;10828;47.064;15.422;2023-07-31T07:02:45;11.13;;;3.63;;
21339;SDS011;10828;47.064;15.422;2023-07-31T07:05:15;9.77;;;3.70;;
21339;SDS011;10828;47.064;15.422;2023-07-31T07:07:43;19.07;;;4.77;;
21339;SDS011;10828;47.064;15.422;2023-07-31T07:10:09;7.20;;;3.90;;
21339;SDS011;10828;47.064;15.422;2023-07-31T07:12:35;11.60;;;4.03;;
21339;SDS011;10828;47.064;15.422;2023-07-31T07:15:01;7.37;;;3.30;;
21339;SDS011;10828;47.064;15.422;2023-07-31T07:17:27;7.40;;;3.63;;
21339;SDS011;10828;47.064;15.422;2023-07-31T07:19:56;7.30;;;3.00;;
21339;SDS011;10828;47.064;15.422;2023-07-31T07:22:22;8.50;;;3.30;;
21339;SDS011;10828;47.064;15.422;2023-07-31T07:24:48;6.00;;;3.23;;
21339;SDS011;10828;47.064;15.422;2023-07-31T07:27:13;6.93;;;3.33;;
21339;SDS011;10828;47.064;15.422;2023-07-31T07:29:39;4.13;;;2.13;;
21339;SDS011;10828;47.064;15.422;2023-07-31T07:32:05;6.33;;;2.53;;
21339;SDS011;10828;47.064;15.422;2023-07-31T07:34:31;8.17;;;2.50;;
21339;SDS011;10828;47.064;15.422;2023-07-31T07:36:56;6.13;;;2.30;;
21339;SDS011;10828;47.064;15.422;2023-07-31T07:39:22;6.90;;;2.43;;
21339;SDS011;10828;47.064;15.422;2023-07-31T07:41:48;10.13;;;3.00;;
21339;SDS011;10828;47.064;15.422;2023-07-31T07:44:13;5.97;;;3.03;;
21339;SDS011;10828;47.064;15.422;2023-07-31T07:46:39;5.63;;;2.50;;
21339;SDS011;10828;47.064;15.422;2023-07-31T07:49:05;7.30;;;2.70;;
21339;SDS011;10828;47.064;15.422;2023-07-31T07:51:31;5.17;;;2.57;;
21339;SDS011;10828;47.064;15.422;2023-07-31T07:54:00;8.43;;;3.23;;
21339;SDS011;10828;47.064;15.422;2023-07-31T07:56:26;4.90;;;2.40;;
21339;SDS011;10828;47.064;15.422;2023-07-31T07:58:52;8.10;;;3.03;;
21339;SDS011;10828;47.064;15.422;2023-07-31T08:01:18;7.97;;;3.03;;
21339;SDS011;10828;47.064;15.422;2023-07-31T08:03:44;7.83;;;1.90;;
21339;SDS011;10828;47.064;15.422;2023-07-31T08:06:10;3.90;;;2.07;;
21339;SDS011;10828;47.064;15.422;2023-07-31T08:08:36;7.67;;;2.27;;
21339;SDS011;10828;47.064;15.422;2023-07-31T08:11:02;7.73;;;1.90;;
21339;SDS011;10828;47.064;15.422;2023-07-31T08:13:28;5.07;;;2.00;;
21339;SDS011;10828;47.064;15.422;2023-07-31T08:15:53;5.17;;;1.80;;
21339;SDS011;10828;47.064;15.422;2023-07-31T08:18:19;7.50;;;2.30;;
21339;SDS011;10828;47.064;15.422;2023-07-31T08:20:45;4.97;;;1.90;;
21339;SDS011;10828;47.064;15.422;2023-07-31T08:23:11;5.40;;;1.80;;
21339;SDS011;10828;47.064;15.422;2023-07-31T08:25:36;4.83;;;1.90;;
21339;SDS011;10828;47.064;15.422;2023-07-31T08:28:02;5.67;;;1.60;;
21339;SDS011;10828;47.064;15.422;2023-07-31T08:30:30;6.17;;;1.70;;
21339;SDS011;10828;47.064;15.422;2023-07-31T08:32:56;4.90;;;1.80;;
21339;SDS011;10828;47.064;15.422;2023-07-31T08:35:24;4.37;;;1.43;;
21339;SDS011;10828;47.064;15.422;2023-07-31T08:37:50;6.83;;;2.00;;
21339;SDS011;10828;47.064;15.422;2023-07-31T08:40:16;4.57;;;1.77;;
21339;SDS011;10828;47.064;15.422;2023-07-31T08:42:45;4.70;;;1.90;;
21339;SDS011;10828;47.064;15.422;2023-07-31T08:45:13;3.37;;;1.70;;
21339;SDS011;10828;47.064;15.422;2023-07-31T08:47:41;5.23;;;1.80;;
21339;SDS011;10828;47.064;15.422;2023-07-31T08:50:09;4.80;;;1.73;;
21339;SDS011;10828;47.064;15.422;2023-07-31T08:52:37;4.70;;;1.80;;
21339;SDS011;10828;47.064;15.422;2023-07-31T08:55:02;4.40;;;1.60;;
21339;SDS011;10828;47.064;15.422;2023-07-31T08:57:28;5.10;;;1.67;;
21339;SDS011;10828;47.064;15.422;2023-07-31T08:59:54;3.53;;;1.60;;
21339;SDS011;10828;47.064;15.422;2023-07-31T09:02:21;3.10;;;1.60;;
21339;SDS011;10828;47.064;15.422;2023-07-31T09:04:48;7.63;;;1.83;;
21339;SDS011;10828;47.064;15.422;2023-07-31T09:07:14;4.17;;;2.13;;
21339;SDS011;10828;47.064;15.422;2023-07-31T09:09:41;6.40;;;1.97;;
21339;SDS011;10828;47.064;15.422;2023-07-31T09:12:06;5.77;;;1.93;;
21339;SDS011;10828;47.064;15.422;2023-07-31T09:14:32;4.17;;;1.60;;
21339;SDS011;10828;47.064;15.422;2023-07-31T09:16:58;7.43;;;2.00;;
21339;SDS011;10828;47.064;15.422;2023-07-31T09:19:25;6.17;;;2.10;;
21339;SDS011;10828;47.064;15.422;2023-07-31T09:21:52;4.07;;;1.83;;
21339;SDS011;10828;47.064;15.422;2023-07-31T09:24:27;4.17;;;1.50;;
21339;SDS011;10828;47.064;15.422;2023-07-31T09:26:55;4.27;;;1.90;;
21339;SDS011;10828;47.064;15.422;2023-07-31T09:29:21;5.70;;;1.87;;
21339;SDS011;10828;47.064;15.422;2023-07-31T09:31:47;5.40;;;1.90;;
21339;SDS011;10828;47.064;15.422;2023-07-31T09:34:13;6.50;;;2.20;;
21339;SDS011;10828;47.064;15.422;2023-07-31T09:36:45;6.37;;;2.03;;
21339;SDS011;10828;47.064;15.422;2023-07-31T09:39:13;3.43;;;1.40;;
21339;SDS011;10828;47.064;15.422;2023-07-31T09:41:42;3.60;;;1.70;;
21339;SDS011;10828;47.064;15.422;2023-07-31T09:44:10;4.10;;;1.40;;
21339;SDS011;10828;47.064;15.422;2023-07-31T09:46:36;6.63;;;2.10;;
21339;SDS011;10828;47.064;15.422;2023-07-31T09:51:40;3.00;;;1.70;;
21339;SDS011;10828;47.064;15.422;2023-07-31T09:54:11;6.53;;;1.60;;
21339;SDS011;10828;47.064;15.422;2023-07-31T09:56:44;4.13;;;1.80;;
21339;SDS011;10828;47.064;15.422;2023-07-31T09:59:14;3.40;;;1.60;;
21339;SDS011;10828;47.064;15.422;2023-07-31T10:01:42;4.33;;;2.03;;
21339;SDS011;10828;47.064;15.422;2023-07-31T10:04:09;3.37;;;1.60;;
21339;SDS011;10828;47.064;15.422;2023-07-31T10:06:36;9.90;;;2.00;;
21339;SDS011;10828;47.064;15.422;2023-07-31T10:09:05;4.03;;;1.63;;
21339;SDS011;10828;47.064;15.422;2023-07-31T10:11:40;6.50;;;2.13;;
21339;SDS011;10828;47.064;15.422;2023-07-31T10:14:09;3.90;;;1.60;;
21339;SDS011;10828;47.064;15.422;2023-07-31T10:16:37;6.37;;;2.00;;
21339;SDS011;10828;47.064;15.422;2023-07-31T10:19:03;4.40;;;2.17;;
21339;SDS011;10828;47.064;15.422;2023-07-31T10:21:29;3.97;;;1.70;;
21339;SDS011;10828;47.064;15.422;2023-07-31T10:23:59;3.70;;;1.60;;
21339;SDS011;10828;47.064;15.422;2023-07-31T10:26:27;4.77;;;1.93;;
21339;SDS011;10828;47.064;15.422;2023-07-31T10:28:54;9.13;;;1.90;;
21339;SDS011;10828;47.064;15.422;2023-07-31T10:31:20;7.23;;;2.10;;
21339;SDS011;10828;47.064;15.422;2023-07-31T10:33:46;4.27;;;1.70;;
21339;SDS011;10828;47.064;15.422;2023-07-31T10:36:12;4.23;;;1.90;;
21339;SDS011;10828;47.064;15.422;2023-07-31T10:38:42;5.03;;;1.97;;
21339;SDS011;10828;47.064;15.422;2023-07-31T10:41:11;4.87;;;1.73;;
21339;SDS011;10828;47.064;15.422;2023-07-31T10:43:38;3.70;;;1.90;;
21339;SDS011;10828;47.064;15.422;2023-07-31T10:46:08;4.67;;;2.20;;
21339;SDS011;10828;47.064;15.422;2023-07-31T10:48:38;5.20;;;2.07;;
21339;SDS011;10828;47.064;15.422;2023-07-31T10:51:10;5.30;;;2.43;;
21339;SDS011;10828;47.064;15.422;2023-07-31T10:53:40;5.37;;;2.00;;
21339;SDS011;10828;47.064;15.422;2023-07-31T10:56:07;4.20;;;1.90;;
21339;SDS011;10828;47.064;15.422;2023-07-31T10:58:34;2.67;;;1.50;;
21339;SDS011;10828;47.064;15.422;2023-07-31T11:01:02;3.93;;;2.10;;
21339;SDS011;10828;47.064;15.422;2023-07-31T11:03:48;4.87;;;2.03;;
21339;SDS011;10828;47.064;15.422;2023-07-31T11:06:16;5.73;;;2.13;;
21339;SDS011;10828;47.064;15.422;2023-07-31T11:08:43;4.28;;;1.80;;
21339;SDS011;10828;47.064;15.422;2023-07-31T11:11:16;8.80;;;1.97;;
21339;SDS011;10828;47.064;15.422;2023-07-31T11:16:09;4.55;;;1.70;;
21339;SDS011;10828;47.064;15.422;2023-07-31T11:18:35;3.75;;;1.73;;
21339;SDS011;10828;47.064;15.422;2023-07-31T11:21:03;4.28;;;1.85;;
21339;SDS011;10828;47.064;15.422;2023-07-31T11:23:28;4.60;;;1.98;;
21339;SDS011;10828;47.064;15.422;2023-07-31T11:25:57;6.63;;;1.88;;
21339;SDS011;10828;47.064;15.422;2023-07-31T11:28:25;6.32;;;1.88;;
21339;SDS011;10828;47.064;15.422;2023-07-31T11:30:51;10.05;;;2.10;;
21339;SDS011;10828;47.064;15.422;2023-07-31T11:33:16;5.80;;;2.17;;
21339;SDS011;10828;47.064;15.422;2023-07-31T11:38:09;5.57;;;1.98;;
21339;SDS011;10828;47.064;15.422;2023-07-31T11:40:43;3.72;;;1.67;;
21339;SDS011;10828;47.064;15.422;2023-07-31T11:43:09;4.03;;;1.92;;
21339;SDS011;10828;47.064;15.422;2023-07-31T11:45:36;6.65;;;1.77;;
21339;SDS011;10828;47.064;15.422;2023-07-31T11:48:03;4.60;;;1.80;;
21339;SDS011;10828;47.064;15.422;2023-07-31T11:50:29;6.65;;;2.25;;
21339;SDS011;10828;47.064;15.422;2023-07-31T11:52:59;5.38;;;2.00;;
21339;SDS011;10828;47.064;15.422;2023-07-31T11:55:27;6.72;;;2.33;;
21339;SDS011;10828;47.064;15.422;2023-07-31T11:57:54;5.20;;;1.80;;
21339;SDS011;10828;47.064;15.422;2023-07-31T12:00:22;3.65;;;1.45;;
21339;SDS011;10828;47.064;15.422;2023-07-31T12:02:48;5.18;;;1.83;;
21339;SDS011;10828;47.064;15.422;2023-07-31T12:05:15;3.63;;;1.70;;
21339;SDS011;10828;47.064;15.422;2023-07-31T12:10:23;5.22;;;2.05;;
21339;SDS011;10828;47.064;15.422;2023-07-31T12:15:31;6.38;;;1.90;;
21339;SDS011;10828;47.064;15.422;2023-07-31T12:17:57;3.28;;;1.80;;
21339;SDS011;10828;47.064;15.422;2023-07-31T12:20:23;5.50;;;2.22;;
21339;SDS011;10828;47.064;15.422;2023-07-31T12:22:49;3.08;;;1.63;;
21339;SDS011;10828;47.064;15.422;2023-07-31T12:25:17;4.53;;;1.88;;
21339;SDS011;10828;47.064;15.422;2023-07-31T12:27:46;4.15;;;1.80;;
21339;SDS011;10828;47.064;15.422;2023-07-31T12:32:57;6.45;;;1.90;;
21339;SDS011;10828;47.064;15.422;2023-07-31T12:35:35;4.68;;;1.60;;
21339;SDS011;10828;47.064;15.422;2023-07-31T12:38:02;5.25;;;1.50;;
21339;SDS011;10828;47.064;15.422;2023-07-31T12:40:28;8.77;;;2.40;;
21339;SDS011;10828;47.064;15.422;2023-07-31T12:42:53;5.47;;;2.33;;
21339;SDS011;10828;47.064;15.422;2023-07-31T12:45:19;6.55;;;2.20;;
21339;SDS011;10828;47.064;15.422;2023-07-31T12:47:46;3.72;;;1.70;;
21339;SDS011;10828;47.064;15.422;2023-07-31T12:50:11;6.70;;;1.83;;
21339;SDS011;10828;47.064;15.422;2023-07-31T12:52:37;3.37;;;1.80;;
21339;SDS011;10828;47.064;15.422;2023-07-31T12:55:03;6.20;;;2.17;;
21339;SDS011;10828;47.064;15.422;2023-07-31T12:57:29;3.35;;;1.70;;
21339;SDS011;10828;47.064;15.422;2023-07-31T12:59:55;3.73;;;2.20;;
21339;SDS011;10828;47.064;15.422;2023-07-31T13:02:21;3.90;;;2.00;;
21339;SDS011;10828;47.064;15.422;2023-07-31T13:04:46;3.45;;;1.70;;
21339;SDS011;10828;47.064;15.422;2023-07-31T13:07:12;5.93;;;2.10;;
21339;SDS011;10828;47.064;15.422;2023-07-31T13:09:37;6.30;;;2.00;;
21339;SDS011;10828;47.064;15.422;2023-07-31T13:12:03;4.75;;;2.17;;
21339;SDS011;10828;47.064;15.422;2023-07-31T13:14:29;3.58;;;1.83;;
21339;SDS011;10828;47.064;15.422;2023-07-31T13:16:55;3.33;;;1.73;;
21339;SDS011;10828;47.064;15.422;2023-07-31T13:19:20;3.67;;;1.95;;
21339;SDS011;10828;47.064;15.422;2023-07-31T13:21:46;3.47;;;1.83;;
21339;SDS011;10828;47.064;15.422;2023-07-31T13:24:11;16.30;;;8.43;;
21339;SDS011;10828;47.064;15.422;2023-07-31T13:26:37;5.65;;;2.45;;
21339;SDS011;10828;47.064;15.422;2023-07-31T13:29:02;4.88;;;1.88;;
21339;SDS011;10828;47.064;15.422;2023-07-31T13:31:28;4.53;;;2.00;;
21339;SDS011;10828;47.064;15.422;2023-07-31T13:33:54;7.97;;;3.05;;
21339;SDS011;10828;47.064;15.422;2023-07-31T13:36:21;3.33;;;1.80;;
21339;SDS011;10828;47.064;15.422;2023-07-31T13:38:47;7.07;;;2.13;;
21339;SDS011;10828;47.064;15.422;2023-07-31T13:41:13;3.47;;;1.92;;
21339;SDS011;10828;47.064;15.422;2023-07-31T13:43:38;5.18;;;1.80;;
21339;SDS011;10828;47.064;15.422;2023-07-31T13:46:04;5.55;;;2.13;;
21339;SDS011;10828;47.064;15.422;2023-07-31T13:48:34;4.25;;;1.80;;
21339;SDS011;10828;47.064;15.422;2023-07-31T13:51:00;4.93;;;1.80;;
21339;SDS011;10828;47.064;15.422;2023-07-31T13:53:25;4.68;;;1.77;;
21339;SDS011;10828;47.064;15.422;2023-07-31T13:55:51;4.25;;;1.80;;
21339;SDS011;10828;47.064;15.422;2023-07-31T13:58:17;3.67;;;1.98;;
21339;SDS011;10828;47.064;15.422;2023-07-31T14:00:43;5.05;;;1.88;;
21339;SDS011;10828;47.064;15.422;2023-07-31T14:03:08;4.22;;;1.90;;
21339;SDS011;10828;47.064;15.422;2023-07-31T14:05:34;3.35;;;1.70;;
21339;SDS011;10828;47.064;15.422;2023-07-31T14:08:00;4.22;;;1.60;;
21339;SDS011;10828;47.064;15.422;2023-07-31T14:10:26;2.95;;;1.80;;
21339;SDS011;10828;47.064;15.422;2023-07-31T14:12:51;4.38;;;2.05;;
21339;SDS011;10828;47.064;15.422;2023-07-31T14:15:17;5.35;;;1.90;;
21339;SDS011;10828;47.064;15.422;2023-07-31T14:17:42;7.97;;;1.77;;
21339;SDS011;10828;47.064;15.422;2023-07-31T14:20:08;5.47;;;1.80;;
21339;SDS011;10828;47.064;15.422;2023-07-31T14:22:34;3.30;;;1.77;;
21339;SDS011;10828;47.064;15.422;2023-07-31T14:25:00;2.78;;;1.50;;
21339;SDS011;10828;47.064;15.422;2023-07-31T14:27:27;5.70;;;1.85;;
21339;SDS011;10828;47.064;15.422;2023-07-31T14:29:53;4.05;;;2.00;;
21339;SDS011;10828;47.064;15.422;2023-07-31T14:32:18;6.55;;;2.08;;
21339;SDS011;10828;47.064;15.422;2023-07-31T14:34:44;6.45;;;2.30;;
21339;SDS011;10828;47.064;15.422;2023-07-31T14:37:10;8.93;;;2.00;;
21339;SDS011;10828;47.064;15.422;2023-07-31T14:39:35;4.35;;;1.85;;
21339;SDS011;10828;47.064;15.422;2023-07-31T14:42:01;4.70;;;2.10;;
21339;SDS011;10828;47.064;15.422;2023-07-31T14:44:27;8.20;;;3.20;;
21339;SDS011;10828;47.064;15.422;2023-07-31T14:46:52;3.42;;;1.90;;
21339;SDS011;10828;47.064;15.422;2023-07-31T14:49:18;3.00;;;1.80;;
21339;SDS011;10828;47.064;15.422;2023-07-31T14:51:43;5.03;;;2.15;;
21339;SDS011;10828;47.064;15.422;2023-07-31T14:54:09;5.22;;;2.10;;
21339;SDS011;10828;47.064;15.422;2023-07-31T14:56:34;4.13;;;2.00;;
21339;SDS011;10828;47.064;15.422;2023-07-31T14:59:00;5.15;;;2.15;;
21339;SDS011;10828;47.064;15.422;2023-07-31T15:01:25;5.95;;;2.25;;
21339;SDS011;10828;47.064;15.422;2023-07-31T15:03:51;4.43;;;2.03;;
21339;SDS011;10828;47.064;15.422;2023-07-31T15:06:17;4.60;;;1.92;;
21339;SDS011;10828;47.064;15.422;2023-07-31T15:08:42;5.78;;;2.10;;
21339;SDS011;10828;47.064;15.422;2023-07-31T15:11:09;4.30;;;2.10;;
21339;SDS011;10828;47.064;15.422;2023-07-31T15:13:35;4.13;;;2.15;;
21339;SDS011;10828;47.064;15.422;2023-07-31T15:16:00;7.88;;;2.38;;
21339;SDS011;10828;47.064;15.422;2023-07-31T15:18:26;8.60;;;1.90;;
21339;SDS011;10828;47.064;15.422;2023-07-31T15:20:53;6.60;;;2.28;;
21339;SDS011;10828;47.064;15.422;2023-07-31T15:23:19;5.60;;;2.03;;
21339;SDS011;10828;47.064;15.422;2023-07-31T15:25:45;5.28;;;2.47;;
21339;SDS011;10828;47.064;15.422;2023-07-31T15:28:11;5.80;;;1.90;;
21339;SDS011;10828;47.064;15.422;2023-07-31T15:30:38;4.95;;;2.20;;
21339;SDS011;10828;47.064;15.422;2023-07-31T15:33:04;8.63;;;2.05;;
21339;SDS011;10828;47.064;15.422;2023-07-31T15:35:30;4.63;;;2.35;;
21339;SDS011;10828;47.064;15.422;2023-07-31T15:37:56;4.20;;;1.83;;
21339;SDS011;10828;47.064;15.422;2023-07-31T15:40:22;4.90;;;1.55;;
21339;SDS011;10828;47.064;15.422;2023-07-31T15:42:47;5.57;;;2.05;;
21339;SDS011;10828;47.064;15.422;2023-07-31T15:45:13;3.65;;;2.03;;
21339;SDS011;10828;47.064;15.422;2023-07-31T15:47:38;7.25;;;2.05;;
21339;SDS011;10828;47.064;15.422;2023-07-31T15:50:06;5.35;;;2.05;;
21339;SDS011;10828;47.064;15.422;2023-07-31T15:52:31;4.72;;;1.83;;
21339;SDS011;10828;47.064;15.422;2023-07-31T15:54:57;5.63;;;2.20;;
21339;SDS011;10828;47.064;15.422;2023-07-31T15:57:22;3.92;;;1.90;;
21339;SDS011;10828;47.064;15.422;2023-07-31T15:59:48;3.92;;;2.13;;
21339;SDS011;10828;47.064;15.422;2023-07-31T16:02:14;6.80;;;2.00;;
21339;SDS011;10828;47.064;15.422;2023-07-31T16:04:39;3.75;;;1.90;;
21339;SDS011;10828;47.064;15.422;2023-07-31T16:07:06;4.63;;;1.90;;
21339;SDS011;10828;47.064;15.422;2023-07-31T16:09:32;12.02;;;3.63;;
21339;SDS011;10828;47.064;15.422;2023-07-31T16:11:57;6.93;;;2.40;;
21339;SDS011;10828;47.064;15.422;2023-07-31T16:14:23;5.72;;;2.58;;
21339;SDS011;10828;47.064;15.422;2023-07-31T16:16:48;3.80;;;2.00;;
21339;SDS011;10828;47.064;15.422;2023-07-31T16:19:15;5.35;;;2.53;;
21339;SDS011;10828;47.064;15.422;2023-07-31T16:21:40;6.22;;;2.10;;
21339;SDS011;10828;47.064;15.422;2023-07-31T16:24:06;6.55;;;2.40;;
21339;SDS011;10828;47.064;15.422;2023-07-31T16:26:32;9.95;;;2.33;;
21339;SDS011;10828;47.064;15.422;2023-07-31T16:28:59;5.07;;;2.50;;
21339;SDS011;10828;47.064;15.422;2023-07-31T16:31:34;6.93;;;2.50;;
21339;SDS011;10828;47.064;15.422;2023-07-31T16:34:04;6.45;;;2.60;;
21339;SDS011;10828;47.064;15.422;2023-07-31T16:36:29;4.53;;;2.08;;
21339;SDS011;10828;47.064;15.422;2023-07-31T16:38:55;12.50;;;2.83;;
21339;SDS011;10828;47.064;15.422;2023-07-31T16:41:21;6.25;;;2.30;;
21339;SDS011;10828;47.064;15.422;2023-07-31T16:43:48;4.22;;;2.08;;
21339;SDS011;10828;47.064;15.422;2023-07-31T16:46:14;7.65;;;1.98;;
21339;SDS011;10828;47.064;15.422;2023-07-31T16:48:40;10.80;;;3.67;;
21339;SDS011;10828;47.064;15.422;2023-07-31T16:51:05;4.45;;;2.30;;
21339;SDS011;10828;47.064;15.422;2023-07-31T16:53:31;6.55;;;2.30;;
21339;SDS011;10828;47.064;15.422;2023-07-31T16:55:57;7.72;;;2.85;;
21339;SDS011;10828;47.064;15.422;2023-07-31T16:58:24;7.88;;;2.38;;
21339;SDS011;10828;47.064;15.422;2023-07-31T17:00:50;6.63;;;2.55;;
21339;SDS011;10828;47.064;15.422;2023-07-31T17:03:15;4.07;;;2.10;;
21339;SDS011;10828;47.064;15.422;2023-07-31T17:05:41;5.05;;;2.45;;
21339;SDS011;10828;47.064;15.422;2023-07-31T17:08:07;4.55;;;2.38;;
21339;SDS011;10828;47.064;15.422;2023-07-31T17:10:34;5.13;;;2.17;;
21339;SDS011;10828;47.064;15.422;2023-07-31T17:13:03;4.78;;;1.95;;
21339;SDS011;10828;47.064;15.422;2023-07-31T17:15:35;4.82;;;2.40;;
21339;SDS011;10828;47.064;15.422;2023-07-31T17:18:00;4.93;;;2.40;;
21339;SDS011;10828;47.064;15.422;2023-07-31T17:20:43;3.85;;;2.08;;
21339;SDS011;10828;47.064;15.422;2023-07-31T17:23:09;5.97;;;1.95;;
21339;SDS011;10828;47.064;15.422;2023-07-31T17:25:37;7.25;;;2.60;;
21339;SDS011;10828;47.064;15.422;2023-07-31T17:28:03;7.22;;;2.53;;
21339;SDS011;10828;47.064;15.422;2023-07-31T17:30:31;5.28;;;2.30;;
21339;SDS011;10828;47.064;15.422;2023-07-31T17:32:57;6.53;;;2.78;;
21339;SDS011;10828;47.064;15.422;2023-07-31T17:35:27;7.22;;;2.28;;
